sensor_id;sensor_type;location;lat;lon;timestamp;P1;durP1;ratioP1;P2;durP2;ratioP2
21392;SDS011;10857;52.228;21.026;2024-01-15T00:00:29;20.40;;;11.10;;
21392;SDS011;10857;52.228;21.026;2024-01-15T00:02:56;20.03;;;11.00;;
21392;SDS011;10857;52.228;21.026;2024-01-15T00:05:24;20.67;;;10.77;;
21392;SDS011;10857;52.228;21.026;2024-01-15T00:07:51;19.83;;;11.40;;
21392;SDS011;10857;52.228;21.026;2024-01-15T00:10:18;20.03;;;11.33;;
21392;SDS011;10857;52.228;21.026;2024-01-15T00:12:45;19.30;;;10.97;;
21392;SDS011;10857;52.228;21.026;2024-01-15T00:15:12;21.33;;;11.33;;
21392;SDS011;10857;52.228;21.026;2024-01-15T00:17:39;22.67;;;11.87;;
21392;SDS011;10857;52.228;21.026;2024-01-15T00:20:06;25.07;;;11.03;;
21392;SDS011;10857;52.228;21.026;2024-01-15T00:22:33;25.00;;;12.70;;
21392;SDS011;10857;52.228;21.026;2024-01-15T00:25:02;22.30;;;11.70;;
21392;SDS011;10857;52.228;21.026;2024-01-15T00:27:30;22.17;;;12.30;;
21392;SDS011;10857;52.228;21.026;2024-01-15T00:29:57;26.27;;;11.77;;
21392;SDS011;10857;52.228;21.026;2024-01-15T00:32:24;22.40;;;11.87;;
21392;SDS011;10857;52.228;21.026;2024-01-15T00:34:51;25.10;;;12.67;;
21392;SDS011;10857;52.228;21.026;2024-01-15T00:37:18;26.60;;;13.07;;
21392;SDS011;10857;52.228;21.026;2024-01-15T00:39:45;22.90;;;12.27;;
21392;SDS011;10857;52.228;21.026;2024-01-15T00:42:12;25.03;;;12.77;;
21392;SDS011;10857;52.228;21.026;2024-01-15T00:44:39;22.90;;;12.20;;
21392;SDS011;10857;52.228;21.026;2024-01-15T00:47:07;28.10;;;13.13;;
21392;SDS011;10857;52.228;21.026;2024-01-15T00:49:34;21.90;;;11.93;;
21392;SDS011;10857;52.228;21.026;2024-01-15T00:52:01;23.13;;;12.13;;
21392;SDS011;10857;52.228;21.026;2024-01-15T00:54:28;20.87;;;12.10;;
21392;SDS011;10857;52.228;21.026;2024-01-15T00:56:55;22.07;;;11.83;;
21392;SDS011;10857;52.228;21.026;2024-01-15T00:59:22;22.43;;;12.00;;
21392;SDS011;10857;52.228;21.026;2024-01-15T01:01:49;22.50;;;12.27;;
21392;SDS011;10857;52.228;21.026;2024-01-15T01:04:16;25.70;;;12.03;;
21392;SDS011;10857;52.228;21.026;2024-01-15T01:06:43;24.23;;;10.83;;
21392;SDS011;10857;52.228;21.026;2024-01-15T01:09:10;25.63;;;12.20;;
21392;SDS011;10857;52.228;21.026;2024-01-15T01:11:37;25.00;;;13.07;;
21392;SDS011;10857;52.228;21.026;2024-01-15T01:14:05;21.67;;;12.40;;
21392;SDS011;10857;52.228;21.026;2024-01-15T01:16:32;27.90;;;13.80;;
21392;SDS011;10857;52.228;21.026;2024-01-15T01:19:06;25.03;;;13.80;;
21392;SDS011;10857;52.228;21.026;2024-01-15T01:21:36;26.43;;;13.30;;
21392;SDS011;10857;52.228;21.026;2024-01-15T01:24:03;27.53;;;14.57;;
21392;SDS011;10857;52.228;21.026;2024-01-15T01:26:30;27.53;;;14.07;;
21392;SDS011;10857;52.228;21.026;2024-01-15T01:28:58;29.67;;;15.47;;
21392;SDS011;10857;52.228;21.026;2024-01-15T01:31:25;25.33;;;13.30;;
21392;SDS011;10857;52.228;21.026;2024-01-15T01:33:52;31.73;;;14.93;;
21392;SDS011;10857;52.228;21.026;2024-01-15T01:36:19;31.77;;;15.17;;
21392;SDS011;10857;52.228;21.026;2024-01-15T01:38:47;26.70;;;14.60;;
21392;SDS011;10857;52.228;21.026;2024-01-15T01:41:14;28.30;;;14.50;;
21392;SDS011;10857;52.228;21.026;2024-01-15T01:43:41;24.80;;;13.17;;
21392;SDS011;10857;52.228;21.026;2024-01-15T01:46:09;28.93;;;15.70;;
21392;SDS011;10857;52.228;21.026;2024-01-15T01:48:37;27.20;;;15.20;;
21392;SDS011;10857;52.228;21.026;2024-01-15T01:51:04;30.77;;;14.97;;
21392;SDS011;10857;52.228;21.026;2024-01-15T01:53:32;28.33;;;15.40;;
21392;SDS011;10857;52.228;21.026;2024-01-15T01:56:01;33.30;;;16.10;;
21392;SDS011;10857;52.228;21.026;2024-01-15T01:58:29;30.77;;;15.80;;
21392;SDS011;10857;52.228;21.026;2024-01-15T02:00:58;30.10;;;15.77;;
21392;SDS011;10857;52.228;21.026;2024-01-15T02:03:27;28.13;;;15.57;;
21392;SDS011;10857;52.228;21.026;2024-01-15T02:05:55;33.37;;;15.83;;
21392;SDS011;10857;52.228;21.026;2024-01-15T02:08:22;29.43;;;14.87;;
21392;SDS011;10857;52.228;21.026;2024-01-15T02:10:49;30.13;;;15.77;;
21392;SDS011;10857;52.228;21.026;2024-01-15T02:13:17;26.77;;;14.77;;
21392;SDS011;10857;52.228;21.026;2024-01-15T02:15:44;30.30;;;15.90;;
21392;SDS011;10857;52.228;21.026;2024-01-15T02:18:12;29.47;;;15.00;;
21392;SDS011;10857;52.228;21.026;2024-01-15T02:20:39;30.30;;;16.13;;
21392;SDS011;10857;52.228;21.026;2024-01-15T02:25:44;29.40;;;16.23;;
21392;SDS011;10857;52.228;21.026;2024-01-15T02:28:13;28.60;;;14.47;;
21392;SDS011;10857;52.228;21.026;2024-01-15T02:30:41;30.27;;;15.47;;
21392;SDS011;10857;52.228;21.026;2024-01-15T02:33:10;31.13;;;16.43;;
21392;SDS011;10857;52.228;21.026;2024-01-15T02:35:38;29.80;;;15.87;;
21392;SDS011;10857;52.228;21.026;2024-01-15T02:38:06;29.70;;;16.03;;
21392;SDS011;10857;52.228;21.026;2024-01-15T02:40:34;31.13;;;16.47;;
21392;SDS011;10857;52.228;21.026;2024-01-15T02:43:01;29.00;;;15.50;;
21392;SDS011;10857;52.228;21.026;2024-01-15T02:45:28;30.10;;;15.47;;
21392;SDS011;10857;52.228;21.026;2024-01-15T02:47:55;27.43;;;15.50;;
21392;SDS011;10857;52.228;21.026;2024-01-15T02:50:23;29.03;;;15.20;;
21392;SDS011;10857;52.228;21.026;2024-01-15T02:52:50;29.93;;;15.40;;
21392;SDS011;10857;52.228;21.026;2024-01-15T02:55:17;28.83;;;15.30;;
21392;SDS011;10857;52.228;21.026;2024-01-15T02:57:44;28.73;;;15.57;;
21392;SDS011;10857;52.228;21.026;2024-01-15T03:00:11;28.43;;;14.23;;
21392;SDS011;10857;52.228;21.026;2024-01-15T03:02:39;29.67;;;15.33;;
21392;SDS011;10857;52.228;21.026;2024-01-15T03:05:11;30.37;;;14.80;;
21392;SDS011;10857;52.228;21.026;2024-01-15T03:07:38;29.73;;;14.73;;
21392;SDS011;10857;52.228;21.026;2024-01-15T03:10:06;26.43;;;14.23;;
21392;SDS011;10857;52.228;21.026;2024-01-15T03:12:33;30.90;;;14.93;;
21392;SDS011;10857;52.228;21.026;2024-01-15T03:15:00;30.37;;;15.40;;
21392;SDS011;10857;52.228;21.026;2024-01-15T03:17:28;32.47;;;15.87;;
21392;SDS011;10857;52.228;21.026;2024-01-15T03:19:55;30.33;;;15.10;;
21392;SDS011;10857;52.228;21.026;2024-01-15T03:22:22;26.33;;;14.00;;
21392;SDS011;10857;52.228;21.026;2024-01-15T03:24:49;25.57;;;13.60;;
21392;SDS011;10857;52.228;21.026;2024-01-15T03:27:16;30.97;;;15.80;;
21392;SDS011;10857;52.228;21.026;2024-01-15T03:29:43;27.23;;;14.63;;
21392;SDS011;10857;52.228;21.026;2024-01-15T03:32:10;30.27;;;15.67;;
21392;SDS011;10857;52.228;21.026;2024-01-15T03:34:37;29.27;;;14.73;;
21392;SDS011;10857;52.228;21.026;2024-01-15T03:37:05;31.10;;;15.53;;
21392;SDS011;10857;52.228;21.026;2024-01-15T03:39:32;33.13;;;16.13;;
21392;SDS011;10857;52.228;21.026;2024-01-15T03:41:59;29.70;;;15.30;;
21392;SDS011;10857;52.228;21.026;2024-01-15T03:44:26;31.47;;;15.83;;
21392;SDS011;10857;52.228;21.026;2024-01-15T03:46:53;33.77;;;16.27;;
21392;SDS011;10857;52.228;21.026;2024-01-15T03:49:20;30.47;;;15.40;;
21392;SDS011;10857;52.228;21.026;2024-01-15T03:51:47;32.33;;;15.87;;
21392;SDS011;10857;52.228;21.026;2024-01-15T03:54:14;34.17;;;16.53;;
21392;SDS011;10857;52.228;21.026;2024-01-15T03:56:45;33.27;;;16.20;;
21392;SDS011;10857;52.228;21.026;2024-01-15T03:59:12;33.37;;;16.63;;
21392;SDS011;10857;52.228;21.026;2024-01-15T04:01:39;27.67;;;13.77;;
21392;SDS011;10857;52.228;21.026;2024-01-15T04:04:06;31.47;;;15.17;;
21392;SDS011;10857;52.228;21.026;2024-01-15T04:06:33;31.67;;;14.97;;
21392;SDS011;10857;52.228;21.026;2024-01-15T04:09:01;25.07;;;14.20;;
21392;SDS011;10857;52.228;21.026;2024-01-15T04:11:28;28.60;;;13.90;;
21392;SDS011;10857;52.228;21.026;2024-01-15T04:13:55;34.00;;;15.13;;
21392;SDS011;10857;52.228;21.026;2024-01-15T04:16:22;26.70;;;12.83;;
21392;SDS011;10857;52.228;21.026;2024-01-15T04:18:49;28.27;;;14.10;;
21392;SDS011;10857;52.228;21.026;2024-01-15T04:21:19;28.87;;;14.50;;
21392;SDS011;10857;52.228;21.026;2024-01-15T04:23:46;30.10;;;15.17;;
21392;SDS011;10857;52.228;21.026;2024-01-15T04:26:13;30.20;;;13.87;;
21392;SDS011;10857;52.228;21.026;2024-01-15T04:28:40;29.97;;;15.33;;
21392;SDS011;10857;52.228;21.026;2024-01-15T04:31:07;28.07;;;14.47;;
21392;SDS011;10857;52.228;21.026;2024-01-15T04:33:34;28.03;;;14.67;;
21392;SDS011;10857;52.228;21.026;2024-01-15T04:36:02;29.73;;;14.47;;
21392;SDS011;10857;52.228;21.026;2024-01-15T04:38:30;28.67;;;14.23;;
21392;SDS011;10857;52.228;21.026;2024-01-15T04:40:58;26.67;;;13.47;;
21392;SDS011;10857;52.228;21.026;2024-01-15T04:43:25;29.03;;;13.43;;
21392;SDS011;10857;52.228;21.026;2024-01-15T04:45:52;29.97;;;13.67;;
21392;SDS011;10857;52.228;21.026;2024-01-15T04:48:19;23.40;;;11.73;;
21392;SDS011;10857;52.228;21.026;2024-01-15T04:50:47;26.70;;;13.43;;
21392;SDS011;10857;52.228;21.026;2024-01-15T04:53:14;23.23;;;12.23;;
21392;SDS011;10857;52.228;21.026;2024-01-15T04:55:41;24.57;;;12.93;;
21392;SDS011;10857;52.228;21.026;2024-01-15T04:58:08;23.73;;;12.40;;
21392;SDS011;10857;52.228;21.026;2024-01-15T05:00:35;24.30;;;12.57;;
21392;SDS011;10857;52.228;21.026;2024-01-15T05:03:02;23.30;;;11.73;;
21392;SDS011;10857;52.228;21.026;2024-01-15T05:05:30;24.10;;;12.03;;
21392;SDS011;10857;52.228;21.026;2024-01-15T05:07:57;25.00;;;13.40;;
21392;SDS011;10857;52.228;21.026;2024-01-15T05:10:23;23.87;;;12.20;;
21392;SDS011;10857;52.228;21.026;2024-01-15T05:12:50;23.87;;;12.37;;
21392;SDS011;10857;52.228;21.026;2024-01-15T05:15:18;25.17;;;13.10;;
21392;SDS011;10857;52.228;21.026;2024-01-15T05:17:45;24.43;;;12.53;;
21392;SDS011;10857;52.228;21.026;2024-01-15T05:20:12;24.93;;;12.43;;
21392;SDS011;10857;52.228;21.026;2024-01-15T05:22:39;24.57;;;11.27;;
21392;SDS011;10857;52.228;21.026;2024-01-15T05:25:06;24.40;;;13.17;;
21392;SDS011;10857;52.228;21.026;2024-01-15T05:27:33;25.50;;;12.60;;
21392;SDS011;10857;52.228;21.026;2024-01-15T05:30:00;24.03;;;11.17;;
21392;SDS011;10857;52.228;21.026;2024-01-15T05:32:27;25.57;;;13.03;;
21392;SDS011;10857;52.228;21.026;2024-01-15T05:34:54;26.30;;;12.53;;
21392;SDS011;10857;52.228;21.026;2024-01-15T05:37:22;21.83;;;13.07;;
21392;SDS011;10857;52.228;21.026;2024-01-15T05:39:49;26.13;;;12.20;;
21392;SDS011;10857;52.228;21.026;2024-01-15T05:42:16;24.47;;;13.23;;
21392;SDS011;10857;52.228;21.026;2024-01-15T05:44:43;25.57;;;13.23;;
21392;SDS011;10857;52.228;21.026;2024-01-15T05:47:10;22.90;;;13.10;;
21392;SDS011;10857;52.228;21.026;2024-01-15T05:49:37;26.30;;;13.23;;
21392;SDS011;10857;52.228;21.026;2024-01-15T05:52:04;26.87;;;12.37;;
21392;SDS011;10857;52.228;21.026;2024-01-15T05:54:31;23.20;;;12.53;;
21392;SDS011;10857;52.228;21.026;2024-01-15T05:56:58;25.00;;;12.87;;
21392;SDS011;10857;52.228;21.026;2024-01-15T05:59:25;23.53;;;12.83;;
21392;SDS011;10857;52.228;21.026;2024-01-15T06:01:52;19.13;;;9.30;;
21392;SDS011;10857;52.228;21.026;2024-01-15T06:04:19;21.50;;;11.83;;
21392;SDS011;10857;52.228;21.026;2024-01-15T06:06:47;21.47;;;13.17;;
21392;SDS011;10857;52.228;21.026;2024-01-15T06:09:14;23.17;;;11.70;;
21392;SDS011;10857;52.228;21.026;2024-01-15T06:11:41;24.77;;;11.10;;
21392;SDS011;10857;52.228;21.026;2024-01-15T06:14:08;24.07;;;11.90;;
21392;SDS011;10857;52.228;21.026;2024-01-15T06:16:35;21.87;;;11.67;;
21392;SDS011;10857;52.228;21.026;2024-01-15T06:19:02;24.73;;;12.57;;
21392;SDS011;10857;52.228;21.026;2024-01-15T06:21:29;24.77;;;13.03;;
21392;SDS011;10857;52.228;21.026;2024-01-15T06:23:56;25.33;;;13.00;;
21392;SDS011;10857;52.228;21.026;2024-01-15T06:26:23;26.33;;;12.80;;
21392;SDS011;10857;52.228;21.026;2024-01-15T06:28:51;22.23;;;12.23;;
21392;SDS011;10857;52.228;21.026;2024-01-15T06:31:18;22.00;;;10.97;;
21392;SDS011;10857;52.228;21.026;2024-01-15T06:33:45;22.87;;;12.27;;
21392;SDS011;10857;52.228;21.026;2024-01-15T06:36:15;25.13;;;12.77;;
21392;SDS011;10857;52.228;21.026;2024-01-15T06:38:45;25.97;;;12.73;;
21392;SDS011;10857;52.228;21.026;2024-01-15T06:41:12;24.10;;;11.30;;
21392;SDS011;10857;52.228;21.026;2024-01-15T06:43:39;25.67;;;13.53;;
21392;SDS011;10857;52.228;21.026;2024-01-15T06:46:06;24.63;;;13.60;;
21392;SDS011;10857;52.228;21.026;2024-01-15T06:48:34;26.37;;;13.63;;
21392;SDS011;10857;52.228;21.026;2024-01-15T06:51:02;24.23;;;12.77;;
21392;SDS011;10857;52.228;21.026;2024-01-15T06:53:29;23.47;;;12.83;;
21392;SDS011;10857;52.228;21.026;2024-01-15T06:55:56;25.87;;;13.30;;
21392;SDS011;10857;52.228;21.026;2024-01-15T06:58:23;26.90;;;14.43;;
21392;SDS011;10857;52.228;21.026;2024-01-15T07:00:50;25.50;;;12.97;;
21392;SDS011;10857;52.228;21.026;2024-01-15T07:03:17;23.87;;;12.70;;
21392;SDS011;10857;52.228;21.026;2024-01-15T07:05:44;24.83;;;13.17;;
21392;SDS011;10857;52.228;21.026;2024-01-15T07:08:11;27.63;;;13.63;;
21392;SDS011;10857;52.228;21.026;2024-01-15T07:10:39;30.20;;;13.03;;
21392;SDS011;10857;52.228;21.026;2024-01-15T07:13:06;23.90;;;13.30;;
21392;SDS011;10857;52.228;21.026;2024-01-15T07:15:33;29.43;;;13.90;;
21392;SDS011;10857;52.228;21.026;2024-01-15T07:18:00;24.43;;;12.17;;
21392;SDS011;10857;52.228;21.026;2024-01-15T07:20:27;25.80;;;14.13;;
21392;SDS011;10857;52.228;21.026;2024-01-15T07:22:54;24.53;;;12.90;;
21392;SDS011;10857;52.228;21.026;2024-01-15T07:25:21;24.73;;;13.97;;
21392;SDS011;10857;52.228;21.026;2024-01-15T07:27:48;27.57;;;13.30;;
21392;SDS011;10857;52.228;21.026;2024-01-15T07:30:16;26.30;;;14.37;;
21392;SDS011;10857;52.228;21.026;2024-01-15T07:32:43;24.83;;;14.27;;
21392;SDS011;10857;52.228;21.026;2024-01-15T07:35:10;26.73;;;14.33;;
21392;SDS011;10857;52.228;21.026;2024-01-15T07:37:37;29.10;;;14.23;;
21392;SDS011;10857;52.228;21.026;2024-01-15T07:40:04;26.00;;;14.17;;
21392;SDS011;10857;52.228;21.026;2024-01-15T07:42:35;27.83;;;13.67;;
21392;SDS011;10857;52.228;21.026;2024-01-15T07:45:02;27.70;;;13.57;;
21392;SDS011;10857;52.228;21.026;2024-01-15T07:47:29;27.20;;;13.90;;
21392;SDS011;10857;52.228;21.026;2024-01-15T07:49:57;29.77;;;14.23;;
21392;SDS011;10857;52.228;21.026;2024-01-15T07:52:30;27.40;;;14.00;;
21392;SDS011;10857;52.228;21.026;2024-01-15T07:54:58;25.97;;;12.83;;
21392;SDS011;10857;52.228;21.026;2024-01-15T07:57:30;27.10;;;13.87;;
21392;SDS011;10857;52.228;21.026;2024-01-15T07:59:57;24.17;;;13.07;;
21392;SDS011;10857;52.228;21.026;2024-01-15T08:02:25;21.57;;;11.70;;
21392;SDS011;10857;52.228;21.026;2024-01-15T08:04:52;20.73;;;10.67;;
21392;SDS011;10857;52.228;21.026;2024-01-15T08:07:19;25.53;;;12.13;;
21392;SDS011;10857;52.228;21.026;2024-01-15T08:09:46;16.90;;;9.13;;
21392;SDS011;10857;52.228;21.026;2024-01-15T08:12:15;20.77;;;11.53;;
21392;SDS011;10857;52.228;21.026;2024-01-15T08:14:42;22.67;;;12.80;;
21392;SDS011;10857;52.228;21.026;2024-01-15T08:17:09;22.60;;;12.30;;
21392;SDS011;10857;52.228;21.026;2024-01-15T08:19:37;19.73;;;10.13;;
21392;SDS011;10857;52.228;21.026;2024-01-15T08:22:07;21.13;;;10.33;;
21392;SDS011;10857;52.228;21.026;2024-01-15T08:24:35;25.47;;;11.27;;
21392;SDS011;10857;52.228;21.026;2024-01-15T08:27:02;23.47;;;10.87;;
21392;SDS011;10857;52.228;21.026;2024-01-15T08:29:31;22.60;;;12.37;;
21392;SDS011;10857;52.228;21.026;2024-01-15T08:32:00;23.97;;;12.27;;
21392;SDS011;10857;52.228;21.026;2024-01-15T08:34:27;25.83;;;13.27;;
21392;SDS011;10857;52.228;21.026;2024-01-15T08:36:57;26.27;;;12.13;;
21392;SDS011;10857;52.228;21.026;2024-01-15T08:39:24;22.00;;;12.07;;
21392;SDS011;10857;52.228;21.026;2024-01-15T08:41:51;23.20;;;11.27;;
21392;SDS011;10857;52.228;21.026;2024-01-15T08:44:18;17.57;;;9.23;;
21392;SDS011;10857;52.228;21.026;2024-01-15T08:46:45;21.23;;;11.80;;
21392;SDS011;10857;52.228;21.026;2024-01-15T08:49:13;23.17;;;11.53;;
21392;SDS011;10857;52.228;21.026;2024-01-15T08:51:40;24.93;;;12.73;;
21392;SDS011;10857;52.228;21.026;2024-01-15T08:54:07;20.67;;;11.03;;
21392;SDS011;10857;52.228;21.026;2024-01-15T08:56:35;20.90;;;10.97;;
21392;SDS011;10857;52.228;21.026;2024-01-15T08:59:02;18.27;;;10.77;;
21392;SDS011;10857;52.228;21.026;2024-01-15T09:01:29;23.07;;;12.37;;
21392;SDS011;10857;52.228;21.026;2024-01-15T09:03:57;25.50;;;12.23;;
21392;SDS011;10857;52.228;21.026;2024-01-15T09:06:24;23.17;;;12.73;;
21392;SDS011;10857;52.228;21.026;2024-01-15T09:08:53;26.57;;;11.67;;
21392;SDS011;10857;52.228;21.026;2024-01-15T09:15:46;19.33;;;9.50;;
21392;SDS011;10857;52.228;21.026;2024-01-15T09:18:14;26.00;;;13.07;;
21392;SDS011;10857;52.228;21.026;2024-01-15T09:20:41;22.07;;;11.77;;
21392;SDS011;10857;52.228;21.026;2024-01-15T09:23:08;21.60;;;12.43;;
21392;SDS011;10857;52.228;21.026;2024-01-15T09:25:35;17.30;;;10.10;;
21392;SDS011;10857;52.228;21.026;2024-01-15T09:28:02;20.63;;;11.37;;
21392;SDS011;10857;52.228;21.026;2024-01-15T09:30:29;19.67;;;11.20;;
21392;SDS011;10857;52.228;21.026;2024-01-15T09:32:57;19.53;;;11.37;;
21392;SDS011;10857;52.228;21.026;2024-01-15T09:35:25;17.00;;;9.63;;
21392;SDS011;10857;52.228;21.026;2024-01-15T09:37:52;18.80;;;9.70;;
21392;SDS011;10857;52.228;21.026;2024-01-15T09:40:19;16.63;;;9.50;;
21392;SDS011;10857;52.228;21.026;2024-01-15T09:42:47;16.60;;;8.73;;
21392;SDS011;10857;52.228;21.026;2024-01-15T09:45:15;14.80;;;7.63;;
21392;SDS011;10857;52.228;21.026;2024-01-15T09:47:42;19.02;;;9.70;;
21392;SDS011;10857;52.228;21.026;2024-01-15T09:50:12;18.03;;;8.70;;
21392;SDS011;10857;52.228;21.026;2024-01-15T09:52:42;33.10;;;9.90;;
21392;SDS011;10857;52.228;21.026;2024-01-15T09:55:11;14.90;;;7.70;;
21392;SDS011;10857;52.228;21.026;2024-01-15T09:57:39;16.43;;;7.67;;
21392;SDS011;10857;52.228;21.026;2024-01-15T10:00:06;15.40;;;6.87;;
21392;SDS011;10857;52.228;21.026;2024-01-15T10:02:37;17.37;;;7.27;;
21392;SDS011;10857;52.228;21.026;2024-01-15T10:05:05;17.90;;;7.23;;
21392;SDS011;10857;52.228;21.026;2024-01-15T10:07:33;20.70;;;7.67;;
21392;SDS011;10857;52.228;21.026;2024-01-15T10:10:02;13.20;;;6.50;;
21392;SDS011;10857;52.228;21.026;2024-01-15T10:12:30;14.23;;;6.50;;
21392;SDS011;10857;52.228;21.026;2024-01-15T10:14:57;20.00;;;7.80;;
21392;SDS011;10857;52.228;21.026;2024-01-15T10:17:24;26.57;;;7.27;;
21392;SDS011;10857;52.228;21.026;2024-01-15T10:19:55;14.63;;;7.20;;
21392;SDS011;10857;52.228;21.026;2024-01-15T10:22:22;13.87;;;6.60;;
21392;SDS011;10857;52.228;21.026;2024-01-15T10:24:49;15.57;;;6.20;;
21392;SDS011;10857;52.228;21.026;2024-01-15T10:27:17;13.80;;;7.13;;
21392;SDS011;10857;52.228;21.026;2024-01-15T10:29:44;13.60;;;6.80;;
21392;SDS011;10857;52.228;21.026;2024-01-15T10:32:12;14.87;;;7.43;;
21392;SDS011;10857;52.228;21.026;2024-01-15T10:34:42;13.67;;;7.03;;
21392;SDS011;10857;52.228;21.026;2024-01-15T10:37:11;15.03;;;6.97;;
21392;SDS011;10857;52.228;21.026;2024-01-15T10:39:38;16.27;;;7.53;;
21392;SDS011;10857;52.228;21.026;2024-01-15T10:42:06;16.80;;;8.40;;
21392;SDS011;10857;52.228;21.026;2024-01-15T10:44:34;18.00;;;8.20;;
21392;SDS011;10857;52.228;21.026;2024-01-15T10:47:02;14.00;;;6.67;;
21392;SDS011;10857;52.228;21.026;2024-01-15T10:49:30;13.23;;;6.97;;
21392;SDS011;10857;52.228;21.026;2024-01-15T10:52:02;13.53;;;6.50;;
21392;SDS011;10857;52.228;21.026;2024-01-15T10:54:30;21.13;;;8.10;;
21392;SDS011;10857;52.228;21.026;2024-01-15T10:56:58;19.23;;;8.07;;
21392;SDS011;10857;52.228;21.026;2024-01-15T10:59:26;16.93;;;8.03;;
21392;SDS011;10857;52.228;21.026;2024-01-15T11:01:53;17.80;;;7.37;;
21392;SDS011;10857;52.228;21.026;2024-01-15T11:04:21;15.00;;;7.77;;
21392;SDS011;10857;52.228;21.026;2024-01-15T11:06:52;15.00;;;7.17;;
21392;SDS011;10857;52.228;21.026;2024-01-15T11:09:22;14.50;;;7.20;;
21392;SDS011;10857;52.228;21.026;2024-01-15T11:11:52;10.53;;;6.63;;
21392;SDS011;10857;52.228;21.026;2024-01-15T11:14:44;15.70;;;7.50;;
21392;SDS011;10857;52.228;21.026;2024-01-15T11:17:14;16.60;;;8.13;;
21392;SDS011;10857;52.228;21.026;2024-01-15T11:19:46;16.77;;;8.33;;
21392;SDS011;10857;52.228;21.026;2024-01-15T11:27:40;15.73;;;7.03;;
21392;SDS011;10857;52.228;21.026;2024-01-15T11:30:24;18.47;;;7.50;;
21392;SDS011;10857;52.228;21.026;2024-01-15T11:32:52;16.13;;;8.80;;
21392;SDS011;10857;52.228;21.026;2024-01-15T11:35:20;18.50;;;8.43;;
21392;SDS011;10857;52.228;21.026;2024-01-15T11:40:18;16.23;;;8.93;;
21392;SDS011;10857;52.228;21.026;2024-01-15T11:42:46;18.60;;;7.70;;
21392;SDS011;10857;52.228;21.026;2024-01-15T11:45:18;16.40;;;7.70;;
21392;SDS011;10857;52.228;21.026;2024-01-15T11:50:41;14.90;;;7.10;;
21392;SDS011;10857;52.228;21.026;2024-01-15T11:56:15;16.67;;;8.80;;
21392;SDS011;10857;52.228;21.026;2024-01-15T11:58:45;17.43;;;8.50;;
21392;SDS011;10857;52.228;21.026;2024-01-15T12:01:13;20.50;;;8.77;;
21392;SDS011;10857;52.228;21.026;2024-01-15T12:03:40;22.50;;;8.03;;
21392;SDS011;10857;52.228;21.026;2024-01-15T12:06:08;17.17;;;8.03;;
21392;SDS011;10857;52.228;21.026;2024-01-15T12:08:37;19.10;;;9.00;;
21392;SDS011;10857;52.228;21.026;2024-01-15T12:11:07;18.60;;;9.27;;
21392;SDS011;10857;52.228;21.026;2024-01-15T12:13:40;20.33;;;8.87;;
21392;SDS011;10857;52.228;21.026;2024-01-15T12:16:07;19.23;;;9.17;;
21392;SDS011;10857;52.228;21.026;2024-01-15T12:18:34;19.60;;;9.20;;
21392;SDS011;10857;52.228;21.026;2024-01-15T12:21:03;15.37;;;8.17;;
21392;SDS011;10857;52.228;21.026;2024-01-15T12:23:31;17.97;;;8.57;;
21392;SDS011;10857;52.228;21.026;2024-01-15T12:25:58;14.40;;;8.33;;
21392;SDS011;10857;52.228;21.026;2024-01-15T12:28:27;17.67;;;8.67;;
21392;SDS011;10857;52.228;21.026;2024-01-15T12:30:55;18.43;;;8.83;;
21392;SDS011;10857;52.228;21.026;2024-01-15T12:33:23;21.07;;;9.37;;
21392;SDS011;10857;52.228;21.026;2024-01-15T12:35:52;17.23;;;9.07;;
21392;SDS011;10857;52.228;21.026;2024-01-15T12:38:19;19.07;;;8.73;;
21392;SDS011;10857;52.228;21.026;2024-01-15T12:40:47;17.17;;;7.70;;
21392;SDS011;10857;52.228;21.026;2024-01-15T12:43:15;18.63;;;10.13;;
21392;SDS011;10857;52.228;21.026;2024-01-15T12:45:42;22.57;;;8.73;;
21392;SDS011;10857;52.228;21.026;2024-01-15T12:48:09;21.07;;;10.17;;
21392;SDS011;10857;52.228;21.026;2024-01-15T12:50:37;20.77;;;8.93;;
21392;SDS011;10857;52.228;21.026;2024-01-15T12:53:04;22.63;;;10.70;;
21392;SDS011;10857;52.228;21.026;2024-01-15T12:55:31;20.27;;;9.30;;
21392;SDS011;10857;52.228;21.026;2024-01-15T12:57:58;22.00;;;10.83;;
21392;SDS011;10857;52.228;21.026;2024-01-15T13:00:25;22.33;;;10.27;;
21392;SDS011;10857;52.228;21.026;2024-01-15T13:02:53;25.00;;;10.83;;
21392;SDS011;10857;52.228;21.026;2024-01-15T13:05:21;22.73;;;9.33;;
21392;SDS011;10857;52.228;21.026;2024-01-15T13:07:50;21.37;;;10.47;;
21392;SDS011;10857;52.228;21.026;2024-01-15T13:10:17;22.43;;;10.60;;
21392;SDS011;10857;52.228;21.026;2024-01-15T13:12:44;19.97;;;9.20;;
21392;SDS011;10857;52.228;21.026;2024-01-15T13:15:11;21.33;;;9.93;;
21392;SDS011;10857;52.228;21.026;2024-01-15T13:17:41;18.87;;;9.73;;
21392;SDS011;10857;52.228;21.026;2024-01-15T13:20:09;20.23;;;9.70;;
21392;SDS011;10857;52.228;21.026;2024-01-15T13:22:38;22.13;;;9.63;;
21392;SDS011;10857;52.228;21.026;2024-01-15T13:25:07;24.70;;;10.60;;
21392;SDS011;10857;52.228;21.026;2024-01-15T13:27:35;25.63;;;13.30;;
21392;SDS011;10857;52.228;21.026;2024-01-15T13:30:04;25.17;;;11.30;;
21392;SDS011;10857;52.228;21.026;2024-01-15T13:32:34;26.00;;;12.07;;
21392;SDS011;10857;52.228;21.026;2024-01-15T13:35:02;28.83;;;12.37;;
21392;SDS011;10857;52.228;21.026;2024-01-15T13:37:34;22.70;;;11.60;;
21392;SDS011;10857;52.228;21.026;2024-01-15T13:40:03;24.80;;;12.63;;
21392;SDS011;10857;52.228;21.026;2024-01-15T13:42:30;24.87;;;11.13;;
21392;SDS011;10857;52.228;21.026;2024-01-15T13:44:58;24.07;;;11.30;;
21392;SDS011;10857;52.228;21.026;2024-01-15T13:47:25;23.80;;;11.13;;
21392;SDS011;10857;52.228;21.026;2024-01-15T13:49:52;25.05;;;12.45;;
21392;SDS011;10857;52.228;21.026;2024-01-15T13:52:20;25.77;;;11.00;;
21392;SDS011;10857;52.228;21.026;2024-01-15T13:54:47;25.37;;;10.17;;
21392;SDS011;10857;52.228;21.026;2024-01-15T13:57:23;24.20;;;10.27;;
21392;SDS011;10857;52.228;21.026;2024-01-15T13:59:50;27.33;;;11.73;;
21392;SDS011;10857;52.228;21.026;2024-01-15T14:02:17;21.77;;;9.23;;
21392;SDS011;10857;52.228;21.026;2024-01-15T14:04:47;25.00;;;12.07;;
21392;SDS011;10857;52.228;21.026;2024-01-15T14:07:15;19.03;;;10.13;;
21392;SDS011;10857;52.228;21.026;2024-01-15T14:09:43;21.60;;;9.60;;
21392;SDS011;10857;52.228;21.026;2024-01-15T14:12:10;22.47;;;9.57;;
21392;SDS011;10857;52.228;21.026;2024-01-15T14:14:38;25.23;;;11.53;;
21392;SDS011;10857;52.228;21.026;2024-01-15T14:17:07;26.03;;;10.30;;
21392;SDS011;10857;52.228;21.026;2024-01-15T14:19:34;22.23;;;9.80;;
21392;SDS011;10857;52.228;21.026;2024-01-15T14:22:01;18.97;;;8.17;;
21392;SDS011;10857;52.228;21.026;2024-01-15T14:24:28;21.80;;;9.77;;
21392;SDS011;10857;52.228;21.026;2024-01-15T14:26:55;18.70;;;8.33;;
21392;SDS011;10857;52.228;21.026;2024-01-15T14:29:23;20.53;;;9.67;;
21392;SDS011;10857;52.228;21.026;2024-01-15T14:31:52;21.37;;;9.93;;
21392;SDS011;10857;52.228;21.026;2024-01-15T14:34:20;47.20;;;11.73;;